Time;durP1;ratioP1;P1;durP2;ratioP2;P2;SDS_P1;SDS_P2;PMS_P1;PMS_P2;Temp;Humidity;BMP_temperature;BMP_pressure;BME280_temperature;BME280_humidity;BME280_pressure;Samples;Min_cycle;Max_cycle;Signal;HPM_P1;HPM_P2
2022/12/24 00:00:16;;;;;;;7.53;3.00;;;;;;;;;;5041976;28;20756;-82
2022/12/24 00:02:44;;;;;;;6.57;3.10;;;;;;;;;;5034728;28;20230;-82
2022/12/24 00:05:11;;;;;;;9.57;3.43;;;;;;;;;;5032673;28;20202;-83
2022/12/24 00:07:38;;;;;;;5.13;2.60;;;;;;;;;;5033006;28;20256;-84
2022/12/24 00:10:06;;;;;;;10.00;2.80;;;;;;;;;;5032525;28;20573;-83
2022/12/24 00:12:33;;;;;;;7.87;2.93;;;;;;;;;;5032286;28;20230;-83
2022/12/24 00:15:00;;;;;;;11.07;3.00;;;;;;;;;;5022506;28;20226;-83
2022/12/24 00:17:27;;;;;;;6.23;2.43;;;;;;;;;;5030978;28;20253;-83
2022/12/24 00:19:55;;;;;;;5.87;2.60;;;;;;;;;;5017111;28;20218;-84
2022/12/24 00:22:22;;;;;;;6.13;2.30;;;;;;;;;;5019409;28;20237;-83
2022/12/24 00:24:49;;;;;;;7.43;2.70;;;;;;;;;;5031091;28;20603;-83
2022/12/24 00:27:17;;;;;;;8.27;3.30;;;;;;;;;;5031221;28;20235;-83
2022/12/24 00:29:44;;;;;;;8.67;4.00;;;;;;;;;;5023431;28;20204;-83
2022/12/24 00:32:11;;;;;;;6.70;2.60;;;;;;;;;;5026280;28;20312;-84
2022/12/24 00:34:38;;;;;;;4.83;2.17;;;;;;;;;;5031520;28;20234;-83
2022/12/24 00:37:07;;;;;;;5.23;2.57;;;;;;;;;;5031452;28;20246;-84
2022/12/24 00:39:34;;;;;;;7.80;2.63;;;;;;;;;;5031806;28;20269;-84
2022/12/24 00:42:01;;;;;;;7.20;2.23;;;;;;;;;;5031389;28;20246;-84
2022/12/24 00:44:28;;;;;;;8.83;3.30;;;;;;;;;;5031506;28;20543;-84
2022/12/24 00:46:55;;;;;;;9.90;2.80;;;;;;;;;;5031144;28;20612;-84
2022/12/24 00:49:22;;;;;;;8.40;2.37;;;;;;;;;;5031437;28;20257;-84
2022/12/24 00:51:49;;;;;;;8.83;2.40;;;;;;;;;;5031179;28;20239;-84
2022/12/24 00:54:17;;;;;;;8.67;2.40;;;;;;;;;;5031927;28;20230;-84
2022/12/24 00:56:44;;;;;;;8.43;2.43;;;;;;;;;;5027974;28;20227;-84
2022/12/24 00:59:13;;;;;;;10.57;2.73;;;;;;;;;;5018588;28;20211;-84
2022/12/24 01:01:40;;;;;;;11.23;2.63;;;;;;;;;;5017592;28;20265;-83
2022/12/24 01:06:51;;;;;;;9.23;2.80;;;;;;;;;;5036378;28;20232;-83
2022/12/24 01:09:20;;;;;;;11.13;2.50;;;;;;;;;;5050921;28;20206;-84
2022/12/24 01:11:47;;;;;;;10.20;2.90;;;;;;;;;;5035856;28;20243;-84
2022/12/24 01:14:14;;;;;;;8.30;2.80;;;;;;;;;;5017512;28;20706;-83
2022/12/24 01:16:41;;;;;;;8.70;2.90;;;;;;;;;;5011283;28;20231;-83
2022/12/24 01:19:08;;;;;;;8.40;2.77;;;;;;;;;;5020984;28;20219;-84
2022/12/24 01:21:35;;;;;;;6.57;2.50;;;;;;;;;;5030283;28;20600;-84
2022/12/24 01:24:02;;;;;;;9.07;2.70;;;;;;;;;;5031148;28;20195;-83
2022/12/24 01:26:30;;;;;;;15.97;3.70;;;;;;;;;;5028189;28;20607;-84
2022/12/24 01:28:57;;;;;;;9.70;2.60;;;;;;;;;;5034170;28;20210;-83
2022/12/24 01:31:24;;;;;;;8.53;3.37;;;;;;;;;;5025874;28;20255;-84
2022/12/24 01:33:51;;;;;;;8.97;2.50;;;;;;;;;;5019668;28;20231;-83
2022/12/24 01:36:18;;;;;;;10.30;3.20;;;;;;;;;;5036019;28;20509;-83
2022/12/24 01:38:45;;;;;;;10.47;2.90;;;;;;;;;;5050579;28;20566;-84
2022/12/24 01:44:15;;;;;;;9.33;2.43;;;;;;;;;;5016577;28;20202;-84
2022/12/24 01:46:43;;;;;;;10.20;3.00;;;;;;;;;;5034365;28;20246;-84
2022/12/24 01:49:12;;;;;;;4.57;2.50;;;;;;;;;;5033412;28;20261;-84
2022/12/24 01:51:40;;;;;;;10.17;2.87;;;;;;;;;;5030901;28;20231;-84
2022/12/24 01:54:08;;;;;;;6.40;2.30;;;;;;;;;;5015296;28;20226;-84
2022/12/24 01:56:36;;;;;;;9.43;2.73;;;;;;;;;;5032310;28;20649;-84
2022/12/24 01:59:05;;;;;;;7.50;2.90;;;;;;;;;;5024543;28;20255;-84
2022/12/24 02:01:33;;;;;;;7.10;2.70;;;;;;;;;;5033900;28;20652;-84
2022/12/24 02:04:02;;;;;;;7.60;2.40;;;;;;;;;;5034289;28;20213;-84
2022/12/24 02:06:29;;;;;;;5.60;2.23;;;;;;;;;;5014585;28;20242;-83
2022/12/24 02:08:56;;;;;;;10.87;2.73;;;;;;;;;;5026351;28;20214;-83
2022/12/24 02:11:23;;;;;;;8.10;2.70;;;;;;;;;;5033928;28;20226;-84
2022/12/24 02:13:51;;;;;;;8.60;3.27;;;;;;;;;;5034013;28;20222;-84
2022/12/24 02:16:25;;;;;;;5.87;2.50;;;;;;;;;;5029267;28;20661;-84
2022/12/24 02:18:57;;;;;;;9.13;2.60;;;;;;;;;;5037319;28;20198;-84
2022/12/24 02:21:30;;;;;;;7.47;2.47;;;;;;;;;;5022703;28;20242;-84
2022/12/24 02:24:13;;;;;;;7.87;2.33;;;;;;;;;;5024704;28;20206;-84
2022/12/24 02:26:56;;;;;;;8.40;2.63;;;;;;;;;;5033548;28;20239;-84
2022/12/24 02:29:34;;;;;;;10.73;2.50;;;;;;;;;;5033827;28;20249;-84
2022/12/24 02:32:03;;;;;;;10.00;2.90;;;;;;;;;;5032960;28;20249;-84
2022/12/24 02:34:33;;;;;;;7.63;2.90;;;;;;;;;;5016925;28;20799;-83
2022/12/24 02:37:02;;;;;;;5.63;2.43;;;;;;;;;;5030237;28;20238;-84
2022/12/24 02:39:34;;;;;;;5.40;2.13;;;;;;;;;;5046112;28;20308;-84
2022/12/24 02:42:06;;;;;;;6.07;2.67;;;;;;;;;;5036014;28;20258;-84
2022/12/24 02:44:36;;;;;;;3.90;2.37;;;;;;;;;;5033014;28;20225;-84
2022/12/24 02:47:05;;;;;;;7.87;2.50;;;;;;;;;;5033322;28;20243;-84
2022/12/24 02:49:32;;;;;;;5.90;1.97;;;;;;;;;;5032838;28;20207;-84
2022/12/24 02:51:59;;;;;;;5.77;2.50;;;;;;;;;;5032977;28;20238;-84
2022/12/24 02:54:26;;;;;;;8.57;3.00;;;;;;;;;;5015720;28;20715;-84
2022/12/24 02:57:04;;;;;;;9.57;2.77;;;;;;;;;;5012975;28;20238;-84
2022/12/24 02:59:37;;;;;;;9.03;3.00;;;;;;;;;;5025751;28;20206;-84
2022/12/24 03:02:09;;;;;;;7.73;3.00;;;;;;;;;;5032754;28;20726;-84
2022/12/24 03:04:41;;;;;;;9.30;3.03;;;;;;;;;;5016107;28;20204;-84
2022/12/24 03:07:15;;;;;;;5.17;2.50;;;;;;;;;;5013267;28;20235;-84
2022/12/24 03:09:49;;;;;;;10.93;2.73;;;;;;;;;;5013413;28;20212;-84
2022/12/24 03:12:18;;;;;;;7.37;3.17;;;;;;;;;;5013367;28;20701;-84
2022/12/24 03:14:48;;;;;;;13.53;3.00;;;;;;;;;;5031378;28;20238;-84
2022/12/24 03:17:18;;;;;;;9.33;2.70;;;;;;;;;;5012961;28;20234;-84
2022/12/24 03:19:45;;;;;;;10.73;2.93;;;;;;;;;;5028804;28;20620;-84
2022/12/24 03:22:13;;;;;;;8.97;2.83;;;;;;;;;;5050229;22;20234;-82
2022/12/24 03:24:40;;;;;;;9.17;2.50;;;;;;;;;;5052872;28;20206;-82
2022/12/24 03:27:08;;;;;;;5.83;2.63;;;;;;;;;;5052827;28;20273;-82
2022/12/24 03:29:35;;;;;;;6.50;2.67;;;;;;;;;;5052825;28;20251;-83
2022/12/24 03:32:03;;;;;;;8.37;2.50;;;;;;;;;;5050448;28;20267;-82
2022/12/24 03:34:31;;;;;;;10.63;2.90;;;;;;;;;;5033375;28;20234;-82
2022/12/24 03:36:58;;;;;;;6.27;2.93;;;;;;;;;;5048599;28;21039;-82
2022/12/24 03:39:25;;;;;;;11.60;2.80;;;;;;;;;;5052733;28;20256;-82
2022/12/24 03:41:52;;;;;;;8.13;2.60;;;;;;;;;;5037281;28;20288;-82
2022/12/24 03:44:19;;;;;;;9.37;2.63;;;;;;;;;;5033311;28;20203;-82
2022/12/24 03:46:46;;;;;;;9.13;2.73;;;;;;;;;;5032690;28;20284;-83
2022/12/24 03:49:13;;;;;;;12.53;2.67;;;;;;;;;;5038049;28;20666;-83
2022/12/24 03:51:42;;;;;;;8.23;2.73;;;;;;;;;;5032647;28;20238;-83
2022/12/24 03:54:09;;;;;;;8.27;2.80;;;;;;;;;;5032482;28;20230;-83
2022/12/24 03:56:36;;;;;;;6.30;2.03;;;;;;;;;;5032254;28;20335;-83
2022/12/24 03:59:03;;;;;;;13.03;3.30;;;;;;;;;;5032377;28;20218;-83
2022/12/24 04:01:30;;;;;;;11.10;2.80;;;;;;;;;;5032004;28;20233;-83
2022/12/24 04:03:57;;;;;;;6.73;2.73;;;;;;;;;;5032363;28;20753;-83
2022/12/24 04:06:24;;;;;;;15.47;2.77;;;;;;;;;;5031927;28;20280;-83
2022/12/24 04:08:52;;;;;;;8.40;2.70;;;;;;;;;;5031532;28;20237;-83
2022/12/24 04:11:19;;;;;;;13.40;2.67;;;;;;;;;;5031907;28;20238;-83
2022/12/24 04:13:46;;;;;;;8.77;2.47;;;;;;;;;;5032051;28;20710;-83
2022/12/24 04:16:14;;;;;;;6.93;2.37;;;;;;;;;;5031970;28;20288;-83
2022/12/24 04:18:42;;;;;;;8.23;2.40;;;;;;;;;;5032120;28;20207;-83
2022/12/24 04:21:09;;;;;;;5.70;2.40;;;;;;;;;;5032130;28;20292;-83
2022/12/24 04:23:37;;;;;;;4.90;2.33;;;;;;;;;;5031869;28;20234;-83
2022/12/24 04:26:07;;;;;;;14.23;3.20;;;;;;;;;;5031301;28;20312;-83
2022/12/24 04:28:35;;;;;;;5.07;3.03;;;;;;;;;;5031983;28;20670;-83
2022/12/24 04:31:02;;;;;;;7.10;2.73;;;;;;;;;;5031728;28;20652;-83
2022/12/24 04:33:29;;;;;;;8.33;3.03;;;;;;;;;;5032392;28;20234;-83
2022/12/24 04:35:57;;;;;;;7.70;2.43;;;;;;;;;;5031524;28;20237;-83
2022/12/24 04:38:25;;;;;;;10.77;2.87;;;;;;;;;;5031904;28;20219;-83
2022/12/24 04:40:58;;;;;;;9.20;3.20;;;;;;;;;;5031574;28;20238;-82
2022/12/24 04:43:26;;;;;;;11.70;2.90;;;;;;;;;;5032160;28;20230;-83
2022/12/24 04:45:53;;;;;;;10.67;3.33;;;;;;;;;;5031499;28;20312;-84
2022/12/24 04:48:20;;;;;;;7.10;2.53;;;;;;;;;;5031944;28;20207;-83
2022/12/24 04:50:47;;;;;;;8.53;2.80;;;;;;;;;;5031505;28;20284;-83
2022/12/24 04:53:14;;;;;;;9.80;2.77;;;;;;;;;;5031678;28;20640;-83
2022/12/24 04:55:44;;;;;;;12.27;3.43;;;;;;;;;;5031490;28;20293;-84
2022/12/24 04:58:11;;;;;;;7.20;2.80;;;;;;;;;;5031770;28;20241;-83
2022/12/24 05:00:40;;;;;;;16.63;5.90;;;;;;;;;;5031320;28;20630;-83
2022/12/24 05:03:07;;;;;;;9.93;2.90;;;;;;;;;;5031602;28;20230;-83
2022/12/24 05:05:34;;;;;;;9.77;2.90;;;;;;;;;;5030997;28;20284;-83
2022/12/24 05:08:01;;;;;;;6.27;2.80;;;;;;;;;;5032358;28;20243;-83
2022/12/24 05:10:28;;;;;;;9.50;3.17;;;;;;;;;;5031299;28;20370;-83
2022/12/24 05:12:55;;;;;;;12.37;2.77;;;;;;;;;;5031683;28;20222;-83
2022/12/24 05:15:22;;;;;;;8.33;2.60;;;;;;;;;;5031351;28;20281;-83
2022/12/24 05:17:50;;;;;;;12.40;2.87;;;;;;;;;;5031638;28;20206;-83
2022/12/24 05:20:17;;;;;;;5.93;2.33;;;;;;;;;;5034769;28;20260;-83
2022/12/24 05:28:17;;;;;;;7.07;2.83;;;;;;;;;;5035441;28;20214;-83
2022/12/24 05:30:44;;;;;;;11.03;3.77;;;;;;;;;;5034809;28;20234;-83
2022/12/24 05:33:13;;;;;;;11.80;3.33;;;;;;;;;;5035129;28;20642;-83
2022/12/24 05:35:40;;;;;;;14.33;3.20;;;;;;;;;;5035417;28;20277;-83
2022/12/24 05:38:07;;;;;;;9.07;3.47;;;;;;;;;;5036566;28;20207;-83
2022/12/24 05:40:34;;;;;;;10.30;3.53;;;;;;;;;;5034780;28;20238;-83
2022/12/24 05:43:01;;;;;;;7.97;4.07;;;;;;;;;;5035093;28;20230;-83
2022/12/24 05:45:28;;;;;;;13.43;3.27;;;;;;;;;;5034543;28;20288;-83
2022/12/24 05:47:55;;;;;;;11.87;3.30;;;;;;;;;;5035017;28;20264;-83
2022/12/24 05:50:24;;;;;;;13.13;3.70;;;;;;;;;;5034844;28;20246;-83
2022/12/24 05:52:51;;;;;;;13.43;3.70;;;;;;;;;;5034807;28;20320;-83
2022/12/24 05:55:18;;;;;;;11.40;2.90;;;;;;;;;;5034498;28;20706;-83
2022/12/24 05:57:45;;;;;;;10.47;3.00;;;;;;;;;;5034919;28;20203;-83
2022/12/24 06:00:12;;;;;;;5.93;2.57;;;;;;;;;;5034179;28;20211;-83
2022/12/24 06:02:39;;;;;;;12.37;3.40;;;;;;;;;;5035629;28;20272;-83
2022/12/24 06:05:06;;;;;;;11.73;3.50;;;;;;;;;;5034484;28;20610;-82
2022/12/24 06:07:35;;;;;;;12.83;4.07;;;;;;;;;;5034580;28;20202;-83
2022/12/24 06:10:02;;;;;;;15.57;3.97;;;;;;;;;;5034566;28;20207;-83
2022/12/24 06:12:29;;;;;;;11.23;3.23;;;;;;;;;;5034314;28;20266;-83
2022/12/24 06:14:56;;;;;;;10.33;3.17;;;;;;;;;;5034379;28;20237;-83
2022/12/24 06:17:23;;;;;;;14.37;3.27;;;;;;;;;;5033878;28;20230;-83
2022/12/24 06:19:50;;;;;;;17.37;2.93;;;;;;;;;;5034150;28;20249;-83
2022/12/24 06:22:17;;;;;;;9.03;3.23;;;;;;;;;;5033562;28;21682;-84
2022/12/24 06:24:45;;;;;;;16.03;3.80;;;;;;;;;;5034307;28;20199;-83
2022/12/24 06:27:12;;;;;;;17.83;4.10;;;;;;;;;;5033853;28;20234;-83
2022/12/24 06:29:39;;;;;;;6.07;3.17;;;;;;;;;;5033640;28;20202;-84
2022/12/24 06:32:06;;;;;;;15.37;3.67;;;;;;;;;;5032880;28;20230;-83
2022/12/24 06:34:33;;;;;;;9.70;3.20;;;;;;;;;;5034641;28;20207;-84
2022/12/24 06:37:01;;;;;;;8.00;3.07;;;;;;;;;;5034178;28;20596;-83
2022/12/24 06:39:28;;;;;;;15.10;4.70;;;;;;;;;;5034433;28;20210;-84
2022/12/24 06:41:56;;;;;;;11.87;3.07;;;;;;;;;;5034006;28;20272;-83
2022/12/24 06:44:23;;;;;;;12.00;4.23;;;;;;;;;;5014515;28;20611;-83
2022/12/24 06:46:50;;;;;;;16.50;3.63;;;;;;;;;;5013748;28;20239;-83
2022/12/24 06:49:17;;;;;;;10.47;3.67;;;;;;;;;;5014574;28;20211;-83
2022/12/24 06:51:44;;;;;;;15.77;3.33;;;;;;;;;;5013896;28;20239;-83
2022/12/24 06:54:11;;;;;;;11.47;3.47;;;;;;;;;;5014114;28;20261;-83
2022/12/24 06:56:39;;;;;;;9.80;3.00;;;;;;;;;;5013247;28;20251;-80
2022/12/24 06:59:07;;;;;;;16.30;3.93;;;;;;;;;;5013601;28;20207;-79
2022/12/24 07:01:34;;;;;;;7.13;3.40;;;;;;;;;;5013127;28;20235;-82
2022/12/24 07:04:01;;;;;;;13.83;4.30;;;;;;;;;;5013992;28;20228;-81
2022/12/24 07:06:29;;;;;;;10.17;3.30;;;;;;;;;;5013383;28;20243;-82
2022/12/24 07:08:56;;;;;;;18.77;3.80;;;;;;;;;;5014205;28;20258;-82
2022/12/24 07:11:25;;;;;;;9.87;3.57;;;;;;;;;;5016012;28;20632;-84
2022/12/24 07:13:52;;;;;;;13.20;3.17;;;;;;;;;;5033237;28;20222;-81
2022/12/24 07:16:21;;;;;;;13.33;3.93;;;;;;;;;;5032857;28;20247;-81
2022/12/24 07:18:48;;;;;;;12.57;3.43;;;;;;;;;;5032954;28;20310;-81
2022/12/24 07:21:15;;;;;;;6.87;3.23;;;;;;;;;;5032797;28;20837;-81
2022/12/24 07:23:42;;;;;;;13.90;3.50;;;;;;;;;;5031445;28;20333;-81
2022/12/24 07:26:09;;;;;;;13.23;3.63;;;;;;;;;;5032294;28;20230;-80
2022/12/24 07:28:36;;;;;;;17.83;4.10;;;;;;;;;;5032921;28;20741;-80
2022/12/24 07:31:03;;;;;;;9.60;2.60;;;;;;;;;;5032481;28;20234;-80
2022/12/24 07:33:32;;;;;;;19.97;4.37;;;;;;;;;;5033300;28;20231;-80
2022/12/24 07:36:00;;;;;;;8.83;3.20;;;;;;;;;;5032621;28;20246;-81
2022/12/24 07:38:27;;;;;;;15.47;4.63;;;;;;;;;;5032798;28;20305;-81
2022/12/24 07:40:54;;;;;;;16.43;3.97;;;;;;;;;;5032735;28;20238;-81
2022/12/24 07:43:21;;;;;;;11.47;3.87;;;;;;;;;;5031808;28;20745;-81
2022/12/24 07:45:48;;;;;;;14.47;4.03;;;;;;;;;;5032534;28;20231;-81
2022/12/24 07:48:15;;;;;;;15.07;4.60;;;;;;;;;;5032641;28;20257;-81
2022/12/24 07:50:43;;;;;;;15.93;3.93;;;;;;;;;;5032458;28;20638;-81
2022/12/24 07:53:10;;;;;;;9.23;3.20;;;;;;;;;;5032941;28;20226;-80
2022/12/24 07:55:37;;;;;;;13.03;3.37;;;;;;;;;;5032191;28;20288;-80
2022/12/24 07:58:04;;;;;;;14.40;4.27;;;;;;;;;;5032133;28;20256;-80
2022/12/24 08:00:32;;;;;;;10.73;3.10;;;;;;;;;;5032030;28;20237;-80
2022/12/24 08:02:59;;;;;;;10.43;3.10;;;;;;;;;;5032516;28;20640;-80
2022/12/24 08:05:26;;;;;;;13.60;3.93;;;;;;;;;;5032020;28;20317;-80
2022/12/24 08:07:55;;;;;;;9.07;3.37;;;;;;;;;;5032346;28;20211;-81
2022/12/24 08:10:22;;;;;;;16.17;3.57;;;;;;;;;;5031903;28;20214;-80
2022/12/24 08:12:49;;;;;;;20.43;4.57;;;;;;;;;;5032264;28;20317;-80
2022/12/24 08:15:16;;;;;;;15.27;4.13;;;;;;;;;;5031937;28;20202;-81
2022/12/24 08:17:44;;;;;;;19.37;3.93;;;;;;;;;;5032447;28;20292;-81
2022/12/24 08:20:11;;;;;;;13.93;3.70;;;;;;;;;;5031956;28;20253;-81
2022/12/24 08:22:38;;;;;;;17.00;3.80;;;;;;;;;;5032179;28;20234;-81
2022/12/24 08:25:07;;;;;;;13.07;2.77;;;;;;;;;;5031622;28;20667;-80
2022/12/24 08:27:34;;;;;;;13.87;4.63;;;;;;;;;;5032325;28;20199;-80
2022/12/24 08:30:01;;;;;;;13.43;3.83;;;;;;;;;;5032272;28;20264;-80
2022/12/24 08:32:28;;;;;;;8.87;2.93;;;;;;;;;;5031643;28;20238;-81
2022/12/24 08:34:55;;;;;;;15.43;4.00;;;;;;;;;;5032136;28;20671;-81
2022/12/24 08:37:22;;;;;;;12.10;3.47;;;;;;;;;;5031702;28;20238;-82
2022/12/24 08:39:49;;;;;;;20.17;4.03;;;;;;;;;;5032137;28;20210;-81
2022/12/24 08:42:18;;;;;;;19.30;4.23;;;;;;;;;;5031545;28;20238;-81
2022/12/24 08:44:46;;;;;;;9.03;2.70;;;;;;;;;;5031842;28;20211;-80
2022/12/24 08:47:13;;;;;;;11.47;3.23;;;;;;;;;;5031426;28;20272;-80
2022/12/24 08:49:40;;;;;;;17.37;3.53;;;;;;;;;;5031735;28;20214;-80
2022/12/24 08:52:08;;;;;;;6.63;2.83;;;;;;;;;;5031476;28;20238;-80
2022/12/24 08:54:35;;;;;;;20.23;3.93;;;;;;;;;;5031530;28;20207;-81
2022/12/24 08:57:02;;;;;;;9.67;3.53;;;;;;;;;;5031133;28;20242;-81
2022/12/24 08:59:30;;;;;;;13.17;3.93;;;;;;;;;;5031907;28;20241;-81
2022/12/24 09:01:57;;;;;;;14.97;3.83;;;;;;;;;;5031198;28;20246;-81
2022/12/24 09:04:24;;;;;;;11.60;3.73;;;;;;;;;;5031767;28;20214;-81
2022/12/24 09:06:51;;;;;;;13.00;4.03;;;;;;;;;;5031222;28;20272;-81
2022/12/24 09:09:18;;;;;;;13.43;3.73;;;;;;;;;;5031392;28;20207;-81
2022/12/24 09:11:45;;;;;;;15.83;4.00;;;;;;;;;;5031137;28;20234;-81
2022/12/24 09:14:12;;;;;;;16.43;4.13;;;;;;;;;;5031865;28;20234;-81
2022/12/24 09:16:41;;;;;;;13.40;3.80;;;;;;;;;;5031313;28;20281;-80
2022/12/24 09:19:08;;;;;;;12.43;3.90;;;;;;;;;;5031458;28;20253;-81
2022/12/24 09:21:35;;;;;;;13.97;4.63;;;;;;;;;;5031014;28;20655;-81
2022/12/24 09:24:04;;;;;;;15.77;4.50;;;;;;;;;;5031853;28;20238;-80
2022/12/24 09:26:31;;;;;;;13.67;4.20;;;;;;;;;;5031215;28;20592;-80
2022/12/24 09:29:00;;;;;;;17.67;4.30;;;;;;;;;;5031632;28;20298;-81
2022/12/24 09:31:27;;;;;;;11.60;2.50;;;;;;;;;;5030525;28;20718;-81
2022/12/24 09:33:55;;;;;;;12.10;4.37;;;;;;;;;;5031385;28;20237;-81
2022/12/24 09:36:22;;;;;;;16.60;3.60;;;;;;;;;;5031013;28;20672;-81
2022/12/24 09:38:49;;;;;;;22.07;4.80;;;;;;;;;;5031348;28;20202;-80
2022/12/24 09:41:25;;;;;;;14.67;4.80;;;;;;;;;;5031086;28;20241;-80
2022/12/24 09:43:56;;;;;;;18.40;3.70;;;;;;;;;;5031289;28;20234;-81
2022/12/24 09:46:25;;;;;;;12.43;3.97;;;;;;;;;;5030921;28;20231;-80
2022/12/24 09:48:55;;;;;;;19.50;4.37;;;;;;;;;;5031102;28;20222;-83
2022/12/24 09:51:27;;;;;;;17.23;4.63;;;;;;;;;;5030872;28;20262;-81
2022/12/24 09:53:56;;;;;;;16.27;4.80;;;;;;;;;;5031485;28;20222;-81
2022/12/24 09:56:24;;;;;;;22.03;4.53;;;;;;;;;;5030229;28;20255;-80
2022/12/24 09:58:55;;;;;;;13.93;3.87;;;;;;;;;;5030887;28;20583;-81
2022/12/24 10:01:22;;;;;;;17.40;3.63;;;;;;;;;;5031332;28;20607;-81
2022/12/24 10:03:49;;;;;;;15.90;4.17;;;;;;;;;;5031399;28;20234;-81
2022/12/24 10:06:17;;;;;;;15.20;3.80;;;;;;;;;;5031894;28;20227;-81
2022/12/24 10:08:52;;;;;;;20.40;3.10;;;;;;;;;;5034864;28;20630;-82
2022/12/24 10:11:24;;;;;;;14.77;4.97;;;;;;;;;;5034689;28;20234;-81
2022/12/24 10:13:57;;;;;;;12.03;3.80;;;;;;;;;;5034747;28;20262;-81
2022/12/24 10:16:28;;;;;;;24.47;4.50;;;;;;;;;;5034062;28;20242;-80
2022/12/24 10:19:00;;;;;;;17.60;3.97;;;;;;;;;;5034226;28;20199;-80
2022/12/24 10:21:32;;;;;;;16.97;4.33;;;;;;;;;;5033939;28;20230;-80
2022/12/24 10:24:04;;;;;;;14.13;4.27;;;;;;;;;;5032918;28;20235;-81
2022/12/24 10:26:35;;;;;;;17.00;4.17;;;;;;;;;;5030561;28;20234;-82
2022/12/24 10:29:07;;;;;;;12.07;3.37;;;;;;;;;;5034295;28;20195;-83
2022/12/24 10:31:36;;;;;;;17.70;4.53;;;;;;;;;;5034089;28;20241;-81
2022/12/24 10:34:07;;;;;;;15.30;4.93;;;;;;;;;;5034351;28;20222;-82
2022/12/24 10:36:34;;;;;;;9.77;3.73;;;;;;;;;;5033902;28;20238;-80
2022/12/24 10:39:03;;;;;;;20.13;4.60;;;;;;;;;;5034296;28;20213;-81
2022/12/24 10:41:30;;;;;;;19.83;4.43;;;;;;;;;;5033798;28;20277;-80
2022/12/24 10:43:58;;;;;;;17.40;4.30;;;;;;;;;;5033723;28;20226;-80
2022/12/24 10:46:28;;;;;;;15.77;4.07;;;;;;;;;;5033594;28;20234;-81
2022/12/24 10:48:58;;;;;;;17.00;4.17;;;;;;;;;;5034321;28;20195;-81
2022/12/24 10:51:30;;;;;;;15.23;4.10;;;;;;;;;;5033653;28;20244;-81
2022/12/24 10:53:59;;;;;;;14.03;3.80;;;;;;;;;;5034371;28;20229;-82
2022/12/24 10:56:27;;;;;;;18.27;4.43;;;;;;;;;;5033589;28;20244;-81
2022/12/24 10:58:55;;;;;;;11.23;3.80;;;;;;;;;;5033944;28;20211;-81
2022/12/24 11:01:42;;;;;;;14.50;3.17;;;;;;;;;;5033693;28;20253;-81
2022/12/24 11:04:15;;;;;;;16.57;3.60;;;;;;;;;;5034051;28;20222;-81
2022/12/24 11:06:52;;;;;;;17.00;3.93;;;;;;;;;;5013735;28;20605;-81
2022/12/24 11:09:21;;;;;;;17.57;4.10;;;;;;;;;;5014319;28;20199;-82
2022/12/24 11:11:50;;;;;;;15.63;4.73;;;;;;;;;;5013368;28;20661;-81
2022/12/24 11:14:17;;;;;;;12.50;3.30;;;;;;;;;;5014186;28;20219;-81
2022/12/24 11:16:49;;;;;;;17.57;3.90;;;;;;;;;;5013032;28;20242;-80
2022/12/24 11:19:18;;;;;;;15.77;3.83;;;;;;;;;;5013573;28;20672;-81
2022/12/24 11:21:45;;;;;;;11.07;3.57;;;;;;;;;;5013212;28;20239;-80
2022/12/24 11:24:22;;;;;;;12.67;3.27;;;;;;;;;;5013528;28;20238;-80
2022/12/24 11:26:50;;;;;;;20.30;4.40;;;;;;;;;;5013176;28;20234;-81
2022/12/24 11:29:20;;;;;;;17.73;4.17;;;;;;;;;;5013375;28;20671;-81
2022/12/24 11:31:48;;;;;;;14.00;3.30;;;;;;;;;;5013176;28;20242;-82
2022/12/24 11:34:22;;;;;;;16.33;3.83;;;;;;;;;;5013594;28;20242;-80
2022/12/24 11:36:50;;;;;;;13.73;3.17;;;;;;;;;;5012633;28;20238;-81
2022/12/24 11:39:21;;;;;;;15.07;3.80;;;;;;;;;;5013367;28;20233;-81
2022/12/24 11:41:49;;;;;;;13.20;4.40;;;;;;;;;;5015888;28;20246;-81
2022/12/24 11:44:24;;;;;;;18.17;3.40;;;;;;;;;;5014688;28;20210;-81
2022/12/24 11:46:55;;;;;;;20.90;4.03;;;;;;;;;;5012672;28;20235;-81
2022/12/24 11:49:24;;;;;;;16.23;3.53;;;;;;;;;;5013231;28;20331;-81
2022/12/24 11:52:12;;;;;;;19.73;4.37;;;;;;;;;;5012279;28;20242;-80
2022/12/24 11:54:43;;;;;;;10.13;3.43;;;;;;;;;;5013436;28;20218;-83
2022/12/24 11:57:13;;;;;;;16.53;4.10;;;;;;;;;;5012692;28;20644;-80
2022/12/24 11:59:43;;;;;;;13.30;3.83;;;;;;;;;;5012579;28;20690;-81
2022/12/24 12:02:16;;;;;;;15.63;4.07;;;;;;;;;;5012407;28;20243;-80
2022/12/24 12:04:44;;;;;;;15.63;4.53;;;;;;;;;;5030359;28;20625;-82
2022/12/24 12:07:14;;;;;;;14.50;3.87;;;;;;;;;;5031790;28;20226;-82
2022/12/24 12:09:42;;;;;;;17.60;4.70;;;;;;;;;;5032606;28;20213;-85
2022/12/24 12:12:12;;;;;;;19.83;4.47;;;;;;;;;;5032147;28;20298;-82
2022/12/24 12:14:41;;;;;;;20.37;4.37;;;;;;;;;;5033205;28;20218;-82
2022/12/24 12:17:15;;;;;;;16.97;4.43;;;;;;;;;;5032176;28;20269;-82
2022/12/24 12:19:44;;;;;;;11.03;3.63;;;;;;;;;;5032402;28;20249;-82
2022/12/24 12:22:14;;;;;;;19.80;4.73;;;;;;;;;;5032744;28;20238;-83
2022/12/24 12:24:44;;;;;;;10.70;3.63;;;;;;;;;;5033451;28;20250;-81
2022/12/24 12:27:18;;;;;;;15.23;3.73;;;;;;;;;;5032858;28;20226;-82
2022/12/24 12:29:47;;;;;;;15.50;3.80;;;;;;;;;;5031878;28;20210;-82
2022/12/24 12:32:20;;;;;;;16.47;4.23;;;;;;;;;;5031889;28;20234;-83
2022/12/24 12:34:53;;;;;;;22.90;4.50;;;;;;;;;;5033028;28;20201;-83
2022/12/24 12:37:22;;;;;;;17.60;3.90;;;;;;;;;;5024923;28;20230;-83
2022/12/24 12:39:54;;;;;;;16.20;3.70;;;;;;;;;;5012432;28;20679;-84
2022/12/24 12:42:25;;;;;;;12.80;3.63;;;;;;;;;;5010648;28;20668;-83
2022/12/24 12:44:59;;;;;;;16.47;4.17;;;;;;;;;;5012759;28;20207;-83
2022/12/24 12:47:35;;;;;;;18.23;3.70;;;;;;;;;;5012689;28;20234;-84
2022/12/24 12:50:08;;;;;;;12.93;3.70;;;;;;;;;;5012264;28;20207;-83
2022/12/24 12:52:42;;;;;;;11.57;3.80;;;;;;;;;;5014022;28;20263;-84
2022/12/24 12:55:17;;;;;;;11.03;3.37;;;;;;;;;;5019191;28;20193;-83
2022/12/24 12:57:46;;;;;;;14.33;3.40;;;;;;;;;;5032296;28;20237;-84
2022/12/24 13:00:16;;;;;;;7.23;3.13;;;;;;;;;;5032266;28;20210;-82
2022/12/24 13:02:57;;;;;;;10.73;3.00;;;;;;;;;;5032541;28;20497;-83
2022/12/24 13:05:39;;;;;;;14.20;3.33;;;;;;;;;;5031999;28;20267;-84
2022/12/24 13:08:23;;;;;;;11.23;3.23;;;;;;;;;;4999170;28;20202;-83
2022/12/24 13:11:05;;;;;;;8.37;2.80;;;;;;;;;;5031687;28;20245;-85
2022/12/24 13:13:42;;;;;;;9.97;3.13;;;;;;;;;;5032898;28;20316;-83
2022/12/24 13:16:42;;;;;;;13.17;4.17;;;;;;;;;;5031552;28;20291;-83
2022/12/24 13:19:16;;;;;;;13.23;3.80;;;;;;;;;;4951880;29;20229;-85
2022/12/24 13:21:44;;;;;;;7.03;2.30;;;;;;;;;;4951749;28;20236;-82
2022/12/24 13:24:17;;;;;;;9.70;2.50;;;;;;;;;;4992126;28;20710;-84
2022/12/24 13:27:00;;;;;;;14.67;3.80;;;;;;;;;;5031648;28;20229;-82
2022/12/24 13:29:31;;;;;;;10.83;3.23;;;;;;;;;;5032863;28;20202;-81
2022/12/24 13:32:32;;;;;;;12.03;3.83;;;;;;;;;;5025210;28;20707;-83
2022/12/24 13:35:02;;;;;;;15.87;3.83;;;;;;;;;;5013124;28;20675;-82
2022/12/24 13:37:33;;;;;;;14.13;3.63;;;;;;;;;;5032205;28;20313;-82
2022/12/24 13:40:14;;;;;;;17.47;4.17;;;;;;;;;;5042808;28;20206;-81
2022/12/24 13:42:49;;;;;;;11.63;3.97;;;;;;;;;;5023254;28;20305;-82
2022/12/24 13:45:40;;;;;;;14.97;4.10;;;;;;;;;;5030823;28;20209;-81
2022/12/24 13:48:15;;;;;;;13.63;3.73;;;;;;;;;;5034906;28;20260;-83
2022/12/24 13:50:45;;;;;;;16.73;4.30;;;;;;;;;;5049070;28;20246;-84
2022/12/24 13:53:21;;;;;;;13.83;3.63;;;;;;;;;;5035453;28;20231;-84
2022/12/24 13:55:51;;;;;;;13.13;4.10;;;;;;;;;;5040862;28;20234;-83
2022/12/24 13:58:20;;;;;;;15.40;3.70;;;;;;;;;;5055529;28;20226;-86
2022/12/24 14:00:53;;;;;;;14.63;4.00;;;;;;;;;;5048395;28;20265;-82
2022/12/24 14:03:27;;;;;;;14.60;4.00;;;;;;;;;;5034664;28;20249;-85
2022/12/24 14:05:59;;;;;;;15.13;4.40;;;;;;;;;;5033582;28;20240;-81
2022/12/24 14:08:27;;;;;;;13.47;4.03;;;;;;;;;;5034756;28;20202;-82
2022/12/24 14:11:00;;;;;;;16.03;4.73;;;;;;;;;;5033189;28;20241;-81
2022/12/24 14:13:46;;;;;;;16.07;4.57;;;;;;;;;;5035013;28;20727;-83
2022/12/24 14:16:15;;;;;;;16.23;3.77;;;;;;;;;;5035595;28;20264;-82
2022/12/24 14:18:43;;;;;;;11.07;4.10;;;;;;;;;;5036378;28;20231;-81
2022/12/24 14:21:17;;;;;;;17.47;5.57;;;;;;;;;;5036129;28;20663;-82
2022/12/24 14:23:52;;;;;;;13.70;4.20;;;;;;;;;;5035667;28;20239;-82
2022/12/24 14:26:20;;;;;;;12.73;4.00;;;;;;;;;;5036225;28;20242;-81
2022/12/24 14:28:51;;;;;;;13.60;3.97;;;;;;;;;;5036198;28;20206;-81
2022/12/24 14:31:19;;;;;;;14.13;4.27;;;;;;;;;;5039942;28;20375;-81
2022/12/24 14:33:46;;;;;;;20.20;4.70;;;;;;;;;;5036499;28;20233;-81
2022/12/24 14:36:14;;;;;;;11.70;4.00;;;;;;;;;;5043558;28;20242;-81
2022/12/24 14:38:44;;;;;;;12.57;4.23;;;;;;;;;;5055317;28;20229;-81
2022/12/24 14:41:19;;;;;;;14.07;4.30;;;;;;;;;;5067224;28;20290;-81
2022/12/24 14:43:52;;;;;;;11.73;3.57;;;;;;;;;;5074378;28;20282;-83
2022/12/24 14:46:23;;;;;;;11.43;3.90;;;;;;;;;;5074371;28;20712;-82
2022/12/24 14:48:52;;;;;;;37.93;23.53;;;;;;;;;;5072598;28;20665;-82
2022/12/24 14:51:21;;;;;;;8.13;3.60;;;;;;;;;;5071241;28;20655;-81
2022/12/24 14:53:58;;;;;;;12.93;5.73;;;;;;;;;;5074093;28;20308;-82
2022/12/24 14:56:28;;;;;;;10.03;3.70;;;;;;;;;;5066317;28;20225;-81